sensor_id;sensor_type;location;lat;lon;timestamp;P1;durP1;ratioP1;P2;durP2;ratioP2
40997;SDS011;26740;45.944;12.480;2023-04-02T00:08:58;14.52;;;9.90;;
40997;SDS011;26740;45.944;12.480;2023-04-02T00:11:31;13.23;;;9.82;;
40997;SDS011;26740;45.944;12.480;2023-04-02T00:14:05;17.60;;;10.40;;
40997;SDS011;26740;45.944;12.480;2023-04-02T00:16:40;13.60;;;10.05;;
40997;SDS011;26740;45.944;12.480;2023-04-02T00:19:07;16.27;;;11.48;;
40997;SDS011;26740;45.944;12.480;2023-04-02T00:21:44;15.63;;;10.45;;
40997;SDS011;26740;45.944;12.480;2023-04-02T00:24:18;13.82;;;9.23;;
40997;SDS011;26740;45.944;12.480;2023-04-02T00:26:50;11.50;;;7.70;;
40997;SDS011;26740;45.944;12.480;2023-04-02T00:29:17;12.75;;;9.13;;
40997;SDS011;26740;45.944;12.480;2023-04-02T00:31:44;12.23;;;9.18;;
40997;SDS011;26740;45.944;12.480;2023-04-02T00:34:17;14.63;;;9.02;;
40997;SDS011;26740;45.944;12.480;2023-04-02T00:36:46;13.50;;;8.85;;
40997;SDS011;26740;45.944;12.480;2023-04-02T00:39:23;15.68;;;9.82;;
40997;SDS011;26740;45.944;12.480;2023-04-02T00:41:54;15.82;;;11.48;;
40997;SDS011;26740;45.944;12.480;2023-04-02T00:44:37;13.38;;;9.73;;
40997;SDS011;26740;45.944;12.480;2023-04-02T00:47:40;13.90;;;10.30;;
40997;SDS011;26740;45.944;12.480;2023-04-02T00:50:05;19.45;;;9.00;;
40997;SDS011;26740;45.944;12.480;2023-04-02T00:52:43;14.40;;;9.98;;
40997;SDS011;26740;45.944;12.480;2023-04-02T00:55:17;14.05;;;9.25;;
40997;SDS011;26740;45.944;12.480;2023-04-02T00:57:45;15.15;;;9.45;;
40997;SDS011;26740;45.944;12.480;2023-04-02T01:06:12;11.52;;;7.90;;
40997;SDS011;26740;45.944;12.480;2023-04-02T01:11:31;16.08;;;9.30;;
40997;SDS011;26740;45.944;12.480;2023-04-02T01:25:42;15.65;;;8.32;;
40997;SDS011;26740;45.944;12.480;2023-04-02T01:28:19;15.38;;;7.82;;
40997;SDS011;26740;45.944;12.480;2023-04-02T01:30:51;15.55;;;9.00;;
40997;SDS011;26740;45.944;12.480;2023-04-02T01:33:38;10.02;;;7.60;;
40997;SDS011;26740;45.944;12.480;2023-04-02T01:36:24;12.30;;;8.38;;
40997;SDS011;26740;45.944;12.480;2023-04-02T01:50:28;13.38;;;6.90;;
40997;SDS011;26740;45.944;12.480;2023-04-02T01:53:06;11.23;;;7.88;;
40997;SDS011;26740;45.944;12.480;2023-04-02T01:55:47;14.50;;;8.48;;
40997;SDS011;26740;45.944;12.480;2023-04-02T01:58:18;11.82;;;7.80;;
40997;SDS011;26740;45.944;12.480;2023-04-02T02:03:26;14.70;;;7.38;;
40997;SDS011;26740;45.944;12.480;2023-04-02T02:05:51;10.68;;;7.80;;
40997;SDS011;26740;45.944;12.480;2023-04-02T02:08:37;13.52;;;6.63;;
40997;SDS011;26740;45.944;12.480;2023-04-02T02:11:11;9.75;;;7.60;;
40997;SDS011;26740;45.944;12.480;2023-04-02T02:13:44;12.15;;;7.65;;
40997;SDS011;26740;45.944;12.480;2023-04-02T02:16:11;15.60;;;7.95;;
40997;SDS011;26740;45.944;12.480;2023-04-02T02:18:42;11.60;;;6.53;;
40997;SDS011;26740;45.944;12.480;2023-04-02T02:21:24;14.55;;;8.15;;
40997;SDS011;26740;45.944;12.480;2023-04-02T02:23:59;11.20;;;7.20;;
40997;SDS011;26740;45.944;12.480;2023-04-02T02:26:28;13.13;;;7.60;;
40997;SDS011;26740;45.944;12.480;2023-04-02T02:28:59;10.15;;;8.38;;
40997;SDS011;26740;45.944;12.480;2023-04-02T02:31:31;14.00;;;7.45;;
40997;SDS011;26740;45.944;12.480;2023-04-02T02:34:02;15.32;;;7.22;;
40997;SDS011;26740;45.944;12.480;2023-04-02T02:39:20;14.25;;;7.43;;
40997;SDS011;26740;45.944;12.480;2023-04-02T02:42:03;12.82;;;7.55;;
40997;SDS011;26740;45.944;12.480;2023-04-02T02:44:48;16.90;;;7.18;;
40997;SDS011;26740;45.944;12.480;2023-04-02T02:47:17;11.70;;;6.90;;
40997;SDS011;26740;45.944;12.480;2023-04-02T02:49:48;11.45;;;7.28;;
40997;SDS011;26740;45.944;12.480;2023-04-02T02:52:18;12.35;;;6.85;;
40997;SDS011;26740;45.944;12.480;2023-04-02T02:54:52;20.92;;;7.35;;
40997;SDS011;26740;45.944;12.480;2023-04-02T02:57:23;10.52;;;7.35;;
40997;SDS011;26740;45.944;12.480;2023-04-02T02:59:53;14.38;;;7.50;;
40997;SDS011;26740;45.944;12.480;2023-04-02T03:02:21;12.32;;;7.40;;
40997;SDS011;26740;45.944;12.480;2023-04-02T03:04:48;12.65;;;7.55;;
40997;SDS011;26740;45.944;12.480;2023-04-02T03:07:17;12.88;;;7.25;;
40997;SDS011;26740;45.944;12.480;2023-04-02T03:09:53;12.57;;;7.22;;
40997;SDS011;26740;45.944;12.480;2023-04-02T03:15:56;13.13;;;7.38;;
40997;SDS011;26740;45.944;12.480;2023-04-02T03:21:53;9.95;;;7.20;;
40997;SDS011;26740;45.944;12.480;2023-04-02T03:24:16;10.30;;;6.80;;
40997;SDS011;26740;45.944;12.480;2023-04-02T03:27:00;9.30;;;6.32;;
40997;SDS011;26740;45.944;12.480;2023-04-02T03:29:28;10.40;;;6.68;;
40997;SDS011;26740;45.944;12.480;2023-04-02T03:34:43;10.98;;;6.40;;
40997;SDS011;26740;45.944;12.480;2023-04-02T03:37:21;13.38;;;6.28;;
40997;SDS011;26740;45.944;12.480;2023-04-02T03:40:09;10.90;;;6.53;;
40997;SDS011;26740;45.944;12.480;2023-04-02T03:45:47;12.15;;;6.20;;
40997;SDS011;26740;45.944;12.480;2023-04-02T03:53:24;9.95;;;5.65;;
40997;SDS011;26740;45.944;12.480;2023-04-02T04:00:56;7.88;;;5.68;;
40997;SDS011;26740;45.944;12.480;2023-04-02T04:03:24;7.60;;;4.82;;
40997;SDS011;26740;45.944;12.480;2023-04-02T04:05:56;11.18;;;6.05;;
40997;SDS011;26740;45.944;12.480;2023-04-02T04:08:43;9.75;;;6.07;;
40997;SDS011;26740;45.944;12.480;2023-04-02T04:11:15;8.45;;;5.90;;
40997;SDS011;26740;45.944;12.480;2023-04-02T04:16:24;11.80;;;6.55;;
40997;SDS011;26740;45.944;12.480;2023-04-02T04:19:03;11.88;;;6.47;;
40997;SDS011;26740;45.944;12.480;2023-04-02T04:21:36;10.80;;;6.38;;
40997;SDS011;26740;45.944;12.480;2023-04-02T04:24:05;9.85;;;6.72;;
40997;SDS011;26740;45.944;12.480;2023-04-02T04:26:40;11.65;;;6.30;;
40997;SDS011;26740;45.944;12.480;2023-04-02T04:31:54;6.45;;;5.32;;
40997;SDS011;26740;45.944;12.480;2023-04-02T04:34:23;9.77;;;5.45;;
40997;SDS011;26740;45.944;12.480;2023-04-02T04:36:56;13.38;;;5.60;;
40997;SDS011;26740;45.944;12.480;2023-04-02T04:39:48;6.88;;;5.05;;
40997;SDS011;26740;45.944;12.480;2023-04-02T04:42:20;10.25;;;6.00;;
40997;SDS011;26740;45.944;12.480;2023-04-02T04:45:02;8.75;;;5.82;;
40997;SDS011;26740;45.944;12.480;2023-04-02T04:47:50;7.75;;;4.90;;
40997;SDS011;26740;45.944;12.480;2023-04-02T04:50:31;8.07;;;5.60;;
40997;SDS011;26740;45.944;12.480;2023-04-02T04:53:13;13.90;;;6.03;;
40997;SDS011;26740;45.944;12.480;2023-04-02T04:55:46;7.45;;;5.22;;
40997;SDS011;26740;45.944;12.480;2023-04-02T05:00:53;6.40;;;5.38;;
40997;SDS011;26740;45.944;12.480;2023-04-02T05:08:55;9.55;;;5.93;;
40997;SDS011;26740;45.944;12.480;2023-04-02T05:11:31;9.50;;;5.55;;
40997;SDS011;26740;45.944;12.480;2023-04-02T05:14:15;8.38;;;5.20;;
40997;SDS011;26740;45.944;12.480;2023-04-02T05:16:48;10.95;;;6.53;;
40997;SDS011;26740;45.944;12.480;2023-04-02T05:19:24;9.50;;;5.68;;
40997;SDS011;26740;45.944;12.480;2023-04-02T05:27:35;9.65;;;5.55;;
40997;SDS011;26740;45.944;12.480;2023-04-02T05:32:42;8.05;;;6.25;;
40997;SDS011;26740;45.944;12.480;2023-04-02T05:35:15;6.55;;;5.90;;
40997;SDS011;26740;45.944;12.480;2023-04-02T05:37:43;6.57;;;5.20;;
40997;SDS011;26740;45.944;12.480;2023-04-02T05:40:14;9.23;;;4.95;;
40997;SDS011;26740;45.944;12.480;2023-04-02T05:42:48;8.13;;;4.82;;
40997;SDS011;26740;45.944;12.480;2023-04-02T05:47:52;5.82;;;4.03;;
40997;SDS011;26740;45.944;12.480;2023-04-02T05:50:32;8.40;;;4.00;;
40997;SDS011;26740;45.944;12.480;2023-04-02T05:55:41;7.13;;;6.00;;
40997;SDS011;26740;45.944;12.480;2023-04-02T05:58:15;9.40;;;5.22;;
40997;SDS011;26740;45.944;12.480;2023-04-02T06:00:57;6.32;;;4.68;;
40997;SDS011;26740;45.944;12.480;2023-04-02T06:06:22;8.38;;;6.50;;
40997;SDS011;26740;45.944;12.480;2023-04-02T06:09:12;9.80;;;6.55;;
40997;SDS011;26740;45.944;12.480;2023-04-02T06:11:40;7.63;;;6.47;;
40997;SDS011;26740;45.944;12.480;2023-04-02T06:14:13;9.48;;;6.47;;
40997;SDS011;26740;45.944;12.480;2023-04-02T06:19:12;10.02;;;6.75;;
40997;SDS011;26740;45.944;12.480;2023-04-02T06:21:43;10.63;;;6.60;;
40997;SDS011;26740;45.944;12.480;2023-04-02T06:24:10;11.05;;;6.90;;
40997;SDS011;26740;45.944;12.480;2023-04-02T06:26:40;10.60;;;6.43;;
40997;SDS011;26740;45.944;12.480;2023-04-02T06:29:12;11.48;;;6.68;;
40997;SDS011;26740;45.944;12.480;2023-04-02T06:31:50;6.90;;;5.93;;
40997;SDS011;26740;45.944;12.480;2023-04-02T06:34:20;8.07;;;5.97;;
40997;SDS011;26740;45.944;12.480;2023-04-02T06:36:49;10.52;;;5.90;;
40997;SDS011;26740;45.944;12.480;2023-04-02T06:39:20;9.45;;;5.22;;
40997;SDS011;26740;45.944;12.480;2023-04-02T06:41:53;12.98;;;6.43;;
40997;SDS011;26740;45.944;12.480;2023-04-02T06:44:35;9.30;;;5.43;;
40997;SDS011;26740;45.944;12.480;2023-04-02T06:52:55;10.90;;;5.43;;
40997;SDS011;26740;45.944;12.480;2023-04-02T06:58:16;5.57;;;3.65;;
40997;SDS011;26740;45.944;12.480;2023-04-02T07:00:44;5.22;;;3.65;;
40997;SDS011;26740;45.944;12.480;2023-04-02T07:05:49;4.32;;;3.90;;
40997;SDS011;26740;45.944;12.480;2023-04-02T07:08:15;4.28;;;3.85;;
40997;SDS011;26740;45.944;12.480;2023-04-02T07:10:41;5.85;;;4.05;;
40997;SDS011;26740;45.944;12.480;2023-04-02T07:13:08;12.95;;;4.50;;
40997;SDS011;26740;45.944;12.480;2023-04-02T07:15:39;7.57;;;4.60;;
40997;SDS011;26740;45.944;12.480;2023-04-02T07:18:05;6.50;;;4.85;;
40997;SDS011;26740;45.944;12.480;2023-04-02T07:20:34;10.93;;;5.80;;
40997;SDS011;26740;45.944;12.480;2023-04-02T07:23:02;12.38;;;6.28;;
40997;SDS011;26740;45.944;12.480;2023-04-02T07:25:28;10.38;;;5.97;;
40997;SDS011;26740;45.944;12.480;2023-04-02T07:27:54;8.93;;;6.10;;
40997;SDS011;26740;45.944;12.480;2023-04-02T07:30:21;11.05;;;6.13;;
40997;SDS011;26740;45.944;12.480;2023-04-02T07:32:46;11.82;;;6.90;;
40997;SDS011;26740;45.944;12.480;2023-04-02T07:35:12;12.00;;;8.40;;
40997;SDS011;26740;45.944;12.480;2023-04-02T07:37:38;12.70;;;6.60;;
40997;SDS011;26740;45.944;12.480;2023-04-02T07:40:24;12.25;;;7.85;;
40997;SDS011;26740;45.944;12.480;2023-04-02T07:42:49;15.85;;;6.75;;
40997;SDS011;26740;45.944;12.480;2023-04-02T07:45:15;9.07;;;6.32;;
40997;SDS011;26740;45.944;12.480;2023-04-02T07:47:41;7.75;;;5.22;;
40997;SDS011;26740;45.944;12.480;2023-04-02T07:50:07;6.07;;;4.03;;
40997;SDS011;26740;45.944;12.480;2023-04-02T07:52:40;6.72;;;2.45;;
40997;SDS011;26740;45.944;12.480;2023-04-02T07:55:10;3.97;;;2.40;;
40997;SDS011;26740;45.944;12.480;2023-04-02T08:00:12;6.25;;;5.10;;
40997;SDS011;26740;45.944;12.480;2023-04-02T08:02:39;8.57;;;4.60;;
40997;SDS011;26740;45.944;12.480;2023-04-02T08:05:05;11.85;;;6.28;;
40997;SDS011;26740;45.944;12.480;2023-04-02T08:07:31;7.75;;;6.50;;
40997;SDS011;26740;45.944;12.480;2023-04-02T08:09:57;8.68;;;6.20;;
40997;SDS011;26740;45.944;12.480;2023-04-02T08:12:23;10.80;;;7.53;;
40997;SDS011;26740;45.944;12.480;2023-04-02T08:14:48;6.75;;;5.60;;
40997;SDS011;26740;45.944;12.480;2023-04-02T08:17:14;9.40;;;5.57;;
40997;SDS011;26740;45.944;12.480;2023-04-02T08:19:39;8.07;;;6.18;;
40997;SDS011;26740;45.944;12.480;2023-04-02T08:22:05;10.48;;;6.20;;
40997;SDS011;26740;45.944;12.480;2023-04-02T08:24:31;9.07;;;5.88;;
40997;SDS011;26740;45.944;12.480;2023-04-02T08:26:56;6.03;;;4.57;;
40997;SDS011;26740;45.944;12.480;2023-04-02T08:29:22;9.95;;;6.00;;
40997;SDS011;26740;45.944;12.480;2023-04-02T08:31:48;8.60;;;5.43;;
40997;SDS011;26740;45.944;12.480;2023-04-02T08:34:13;7.03;;;5.50;;
40997;SDS011;26740;45.944;12.480;2023-04-02T08:36:40;10.35;;;5.95;;
40997;SDS011;26740;45.944;12.480;2023-04-02T08:39:08;8.15;;;6.03;;
40997;SDS011;26740;45.944;12.480;2023-04-02T08:41:52;7.47;;;5.20;;
40997;SDS011;26740;45.944;12.480;2023-04-02T08:47:02;6.63;;;5.30;;
40997;SDS011;26740;45.944;12.480;2023-04-02T08:49:34;9.60;;;5.45;;
40997;SDS011;26740;45.944;12.480;2023-04-02T08:52:05;7.65;;;4.75;;
40997;SDS011;26740;45.944;12.480;2023-04-02T08:54:42;7.78;;;3.80;;
40997;SDS011;26740;45.944;12.480;2023-04-02T08:57:14;9.32;;;4.13;;
40997;SDS011;26740;45.944;12.480;2023-04-02T09:00:06;7.45;;;4.78;;
40997;SDS011;26740;45.944;12.480;2023-04-02T09:02:54;5.55;;;3.92;;
40997;SDS011;26740;45.944;12.480;2023-04-02T09:05:25;7.15;;;4.80;;
40997;SDS011;26740;45.944;12.480;2023-04-02T09:07:54;5.47;;;3.42;;
40997;SDS011;26740;45.944;12.480;2023-04-02T09:10:24;5.22;;;2.70;;
40997;SDS011;26740;45.944;12.480;2023-04-02T09:13:12;2.75;;;1.27;;
40997;SDS011;26740;45.944;12.480;2023-04-02T09:15:52;3.28;;;1.20;;
40997;SDS011;26740;45.944;12.480;2023-04-02T09:18:26;1.58;;;0.90;;
40997;SDS011;26740;45.944;12.480;2023-04-02T09:20:54;2.03;;;0.65;;
40997;SDS011;26740;45.944;12.480;2023-04-02T09:23:20;3.10;;;0.90;;
40997;SDS011;26740;45.944;12.480;2023-04-02T09:25:50;2.43;;;0.30;;
40997;SDS011;26740;45.944;12.480;2023-04-02T09:28:17;1.50;;;0.28;;
40997;SDS011;26740;45.944;12.480;2023-04-02T09:33:39;0.82;;;0.30;;
40997;SDS011;26740;45.944;12.480;2023-04-02T09:36:08;0.65;;;0.28;;
40997;SDS011;26740;45.944;12.480;2023-04-02T09:41:36;1.20;;;0.40;;
40997;SDS011;26740;45.944;12.480;2023-04-02T09:44:19;1.30;;;0.73;;
40997;SDS011;26740;45.944;12.480;2023-04-02T09:49:33;1.60;;;0.93;;
40997;SDS011;26740;45.944;12.480;2023-04-02T09:54:42;1.88;;;0.90;;
40997;SDS011;26740;45.944;12.480;2023-04-02T09:57:22;1.77;;;0.60;;
40997;SDS011;26740;45.944;12.480;2023-04-02T10:00:15;1.02;;;0.40;;
40997;SDS011;26740;45.944;12.480;2023-04-02T10:02:38;1.02;;;0.40;;
40997;SDS011;26740;45.944;12.480;2023-04-02T10:05:04;1.52;;;0.30;;
40997;SDS011;26740;45.944;12.480;2023-04-02T10:07:39;2.90;;;0.47;;
40997;SDS011;26740;45.944;12.480;2023-04-02T10:12:55;0.73;;;0.30;;
40997;SDS011;26740;45.944;12.480;2023-04-02T10:15:43;0.43;;;0.30;;
40997;SDS011;26740;45.944;12.480;2023-04-02T10:18:24;0.70;;;0.20;;
40997;SDS011;26740;45.944;12.480;2023-04-02T10:21:00;3.20;;;0.20;;
40997;SDS011;26740;45.944;12.480;2023-04-02T10:23:29;2.03;;;0.75;;
40997;SDS011;26740;45.944;12.480;2023-04-02T10:34:14;1.15;;;0.13;;
40997;SDS011;26740;45.944;12.480;2023-04-02T10:36:54;0.93;;;0.17;;
40997;SDS011;26740;45.944;12.480;2023-04-02T10:39:33;0.47;;;0.17;;
40997;SDS011;26740;45.944;12.480;2023-04-02T10:45:12;0.22;;;0.10;;
40997;SDS011;26740;45.944;12.480;2023-04-02T10:47:49;0.30;;;0.10;;
40997;SDS011;26740;45.944;12.480;2023-04-02T10:50:26;0.40;;;0.10;;
40997;SDS011;26740;45.944;12.480;2023-04-02T10:55:31;3.60;;;0.10;;
40997;SDS011;26740;45.944;12.480;2023-04-02T10:58:07;1.80;;;0.30;;
40997;SDS011;26740;45.944;12.480;2023-04-02T11:05:46;0.65;;;0.20;;
40997;SDS011;26740;45.944;12.480;2023-04-02T11:08:19;0.45;;;0.22;;
40997;SDS011;26740;45.944;12.480;2023-04-02T11:10:48;0.63;;;0.10;;
40997;SDS011;26740;45.944;12.480;2023-04-02T11:13:27;1.30;;;0.17;;
40997;SDS011;26740;45.944;12.480;2023-04-02T11:15:57;1.23;;;0.17;;
40997;SDS011;26740;45.944;12.480;2023-04-02T11:18:24;2.08;;;0.10;;
40997;SDS011;26740;45.944;12.480;2023-04-02T11:20:57;1.05;;;0.20;;
40997;SDS011;26740;45.944;12.480;2023-04-02T11:23:26;0.68;;;0.20;;
40997;SDS011;26740;45.944;12.480;2023-04-02T11:26:25;0.68;;;0.28;;
40997;SDS011;26740;45.944;12.480;2023-04-02T11:29:05;0.80;;;0.30;;
40997;SDS011;26740;45.944;12.480;2023-04-02T11:34:03;0.20;;;0.10;;
40997;SDS011;26740;45.944;12.480;2023-04-02T11:42:21;0.25;;;0.00;;
40997;SDS011;26740;45.944;12.480;2023-04-02T11:44:55;0.90;;;0.35;;
40997;SDS011;26740;45.944;12.480;2023-04-02T11:52:27;0.05;;;0.00;;
40997;SDS011;26740;45.944;12.480;2023-04-02T12:00:51;2.05;;;0.00;;
40997;SDS011;26740;45.944;12.480;2023-04-02T12:03:39;2.92;;;0.00;;
40997;SDS011;26740;45.944;12.480;2023-04-02T12:09:22;0.03;;;0.00;;
40997;SDS011;26740;45.944;12.480;2023-04-02T12:11:52;0.10;;;0.10;;
40997;SDS011;26740;45.944;12.480;2023-04-02T12:17:12;0.00;;;0.00;;
40997;SDS011;26740;45.944;12.480;2023-04-02T12:22:29;0.03;;;0.00;;
40997;SDS011;26740;45.944;12.480;2023-04-02T12:25:01;0.10;;;0.00;;
40997;SDS011;26740;45.944;12.480;2023-04-02T12:27:47;0.10;;;0.00;;
40997;SDS011;26740;45.944;12.480;2023-04-02T12:30:27;0.10;;;0.00;;
40997;SDS011;26740;45.944;12.480;2023-04-02T12:32:52;0.35;;;0.10;;
40997;SDS011;26740;45.944;12.480;2023-04-02T12:37:51;0.30;;;0.17;;
40997;SDS011;26740;45.944;12.480;2023-04-02T12:40:17;0.00;;;0.00;;
40997;SDS011;26740;45.944;12.480;2023-04-02T12:42:43;0.75;;;0.00;;
40997;SDS011;26740;45.944;12.480;2023-04-02T12:45:19;2.40;;;0.00;;
40997;SDS011;26740;45.944;12.480;2023-04-02T12:47:50;0.10;;;0.00;;
40997;SDS011;26740;45.944;12.480;2023-04-02T12:50:17;1.20;;;0.00;;
40997;SDS011;26740;45.944;12.480;2023-04-02T12:52:44;0.50;;;0.00;;
40997;SDS011;26740;45.944;12.480;2023-04-02T12:55:22;0.10;;;0.00;;
40997;SDS011;26740;45.944;12.480;2023-04-02T12:57:56;0.28;;;0.05;;
40997;SDS011;26740;45.944;12.480;2023-04-02T13:02:50;0.28;;;0.10;;
40997;SDS011;26740;45.944;12.480;2023-04-02T13:05:36;0.00;;;0.00;;
40997;SDS011;26740;45.944;12.480;2023-04-02T13:08:05;1.17;;;0.20;;
40997;SDS011;26740;45.944;12.480;2023-04-02T13:10:41;0.13;;;0.00;;
40997;SDS011;26740;45.944;12.480;2023-04-02T13:13:11;0.90;;;0.00;;
40997;SDS011;26740;45.944;12.480;2023-04-02T13:15:41;0.10;;;0.00;;
40997;SDS011;26740;45.944;12.480;2023-04-02T13:18:20;0.00;;;0.00;;
40997;SDS011;26740;45.944;12.480;2023-04-02T13:20:56;1.20;;;0.00;;
40997;SDS011;26740;45.944;12.480;2023-04-02T13:23:43;0.45;;;0.00;;
40997;SDS011;26740;45.944;12.480;2023-04-02T13:26:23;0.38;;;0.10;;
40997;SDS011;26740;45.944;12.480;2023-04-02T13:31:49;0.70;;;0.20;;
40997;SDS011;26740;45.944;12.480;2023-04-02T13:34:15;1.60;;;0.03;;
40997;SDS011;26740;45.944;12.480;2023-04-02T13:36:42;0.65;;;0.10;;
40997;SDS011;26740;45.944;12.480;2023-04-02T13:39:08;0.40;;;0.00;;
40997;SDS011;26740;45.944;12.480;2023-04-02T13:41:44;0.20;;;0.10;;
40997;SDS011;26740;45.944;12.480;2023-04-02T13:44:19;5.40;;;0.13;;
40997;SDS011;26740;45.944;12.480;2023-04-02T13:46:48;0.30;;;0.00;;
40997;SDS011;26740;45.944;12.480;2023-04-02T13:49:14;0.22;;;0.08;;
40997;SDS011;26740;45.944;12.480;2023-04-02T13:51:40;0.43;;;0.08;;
40997;SDS011;26740;45.944;12.480;2023-04-02T13:54:19;0.73;;;0.03;;
40997;SDS011;26740;45.944;12.480;2023-04-02T13:56:50;0.43;;;0.03;;
40997;SDS011;26740;45.944;12.480;2023-04-02T13:59:16;0.03;;;0.00;;
40997;SDS011;26740;45.944;12.480;2023-04-02T14:01:42;0.20;;;0.03;;
40997;SDS011;26740;45.944;12.480;2023-04-02T14:04:09;0.90;;;0.10;;
40997;SDS011;26740;45.944;12.480;2023-04-02T14:06:58;0.10;;;0.03;;
40997;SDS011;26740;45.944;12.480;2023-04-02T14:09:47;0.85;;;0.08;;
40997;SDS011;26740;45.944;12.480;2023-04-02T14:18:02;0.17;;;0.00;;
40997;SDS011;26740;45.944;12.480;2023-04-02T14:28:57;0.40;;;0.10;;
40997;SDS011;26740;45.944;12.480;2023-04-02T14:31:35;0.10;;;0.00;;
40997;SDS011;26740;45.944;12.480;2023-04-02T14:34:14;0.20;;;0.10;;
40997;SDS011;26740;45.944;12.480;2023-04-02T14:39:49;0.00;;;0.00;;
40997;SDS011;26740;45.944;12.480;2023-04-02T14:45:04;2.08;;;0.10;;
40997;SDS011;26740;45.944;12.480;2023-04-02T14:47:56;0.00;;;0.00;;
40997;SDS011;26740;45.944;12.480;2023-04-02T14:50:36;0.30;;;0.00;;
40997;SDS011;26740;45.944;12.480;2023-04-02T14:53:15;0.00;;;0.00;;
40997;SDS011;26740;45.944;12.480;2023-04-02T14:55:45;0.00;;;0.00;;
40997;SDS011;26740;45.944;12.480;2023-04-02T14:58:32;0.20;;;0.00;;
40997;SDS011;26740;45.944;12.480;2023-04-02T15:01:15;0.10;;;0.00;;
40997;SDS011;26740;45.944;12.480;2023-04-02T15:06:42;0.15;;;0.00;;
40997;SDS011;26740;45.944;12.480;2023-04-02T15:09:13;1.23;;;0.00;;
40997;SDS011;26740;45.944;12.480;2023-04-02T15:11:49;1.75;;;0.00;;
40997;SDS011;26740;45.944;12.480;2023-04-02T15:14:20;6.32;;;0.10;;
40997;SDS011;26740;45.944;12.480;2023-04-02T15:16:50;0.30;;;0.15;;
40997;SDS011;26740;45.944;12.480;2023-04-02T15:19:16;0.00;;;0.00;;
40997;SDS011;26740;45.944;12.480;2023-04-02T15:29:50;1.33;;;0.00;;
40997;SDS011;26740;45.944;12.480;2023-04-02T15:32:36;0.28;;;0.10;;
40997;SDS011;26740;45.944;12.480;2023-04-02T15:35:25;0.03;;;0.00;;
40997;SDS011;26740;45.944;12.480;2023-04-02T16:13:10;0.20;;;0.00;;
40997;SDS011;26740;45.944;12.480;2023-04-02T16:15:48;2.53;;;1.08;;
40997;SDS011;26740;45.944;12.480;2023-04-02T16:18:28;0.20;;;0.00;;
40997;SDS011;26740;45.944;12.480;2023-04-02T16:20:54;0.43;;;0.10;;
40997;SDS011;26740;45.944;12.480;2023-04-02T16:23:24;0.13;;;0.05;;
40997;SDS011;26740;45.944;12.480;2023-04-02T16:32:27;0.55;;;0.03;;
40997;SDS011;26740;45.944;12.480;2023-04-02T16:35:25;0.00;;;0.00;;
40997;SDS011;26740;45.944;12.480;2023-04-02T16:43:48;0.13;;;0.00;;
40997;SDS011;26740;45.944;12.480;2023-04-02T16:49:51;0.10;;;0.00;;
40997;SDS011;26740;45.944;12.480;2023-04-02T16:57:40;4.03;;;0.10;;
40997;SDS011;26740;45.944;12.480;2023-04-02T17:03:01;0.10;;;0.10;;
40997;SDS011;26740;45.944;12.480;2023-04-02T17:06:00;0.65;;;0.10;;
40997;SDS011;26740;45.944;12.480;2023-04-02T17:11:14;2.80;;;0.60;;
40997;SDS011;26740;45.944;12.480;2023-04-02T17:14:02;1.88;;;0.55;;
40997;SDS011;26740;45.944;12.480;2023-04-02T17:16:40;1.02;;;0.40;;
40997;SDS011;26740;45.944;12.480;2023-04-02T17:19:10;1.00;;;0.32;;
40997;SDS011;26740;45.944;12.480;2023-04-02T17:21:38;0.40;;;0.17;;
40997;SDS011;26740;45.944;12.480;2023-04-02T17:26:38;0.32;;;0.10;;
40997;SDS011;26740;45.944;12.480;2023-04-02T17:29:10;1.40;;;0.43;;
40997;SDS011;26740;45.944;12.480;2023-04-02T17:31:41;1.77;;;0.57;;
40997;SDS011;26740;45.944;12.480;2023-04-02T17:34:13;4.70;;;0.70;;
40997;SDS011;26740;45.944;12.480;2023-04-02T17:47:46;4.38;;;0.82;;
40997;SDS011;26740;45.944;12.480;2023-04-02T17:50:28;3.65;;;1.02;;
40997;SDS011;26740;45.944;12.480;2023-04-02T17:55:50;3.97;;;1.50;;
40997;SDS011;26740;45.944;12.480;2023-04-02T18:04:09;19.73;;;9.43;;
40997;SDS011;26740;45.944;12.480;2023-04-02T18:09:36;7.55;;;4.38;;
40997;SDS011;26740;45.944;12.480;2023-04-02T18:20:26;4.40;;;1.98;;
40997;SDS011;26740;45.944;12.480;2023-04-02T18:33:15;4.63;;;1.80;;
40997;SDS011;26740;45.944;12.480;2023-04-02T18:36:17;5.45;;;2.08;;
40997;SDS011;26740;45.944;12.480;2023-04-02T18:39:05;3.85;;;2.15;;
40997;SDS011;26740;45.944;12.480;2023-04-02T18:48:03;5.15;;;2.75;;
40997;SDS011;26740;45.944;12.480;2023-04-02T18:50:17;4.18;;;1.92;;
40997;SDS011;26740;45.944;12.480;2023-04-02T18:52:52;4.22;;;2.22;;
40997;SDS011;26740;45.944;12.480;2023-04-02T18:55:28;3.92;;;2.30;;
40997;SDS011;26740;45.944;12.480;2023-04-02T18:57:57;7.45;;;2.67;;
40997;SDS011;26740;45.944;12.480;2023-04-02T19:00:40;6.35;;;2.45;;
40997;SDS011;26740;45.944;12.480;2023-04-02T19:03:14;7.32;;;2.17;;
40997;SDS011;26740;45.944;12.480;2023-04-02T19:05:58;3.42;;;2.08;;
40997;SDS011;26740;45.944;12.480;2023-04-02T19:11:22;5.65;;;3.05;;
40997;SDS011;26740;45.944;12.480;2023-04-02T19:13:58;3.50;;;2.33;;
40997;SDS011;26740;45.944;12.480;2023-04-02T19:16:29;7.05;;;2.40;;
40997;SDS011;26740;45.944;12.480;2023-04-02T19:19:22;6.95;;;2.88;;
40997;SDS011;26740;45.944;12.480;2023-04-02T19:21:54;5.90;;;3.03;;
40997;SDS011;26740;45.944;12.480;2023-04-02T19:35:22;9.63;;;5.28;;
40997;SDS011;26740;45.944;12.480;2023-04-02T19:37:58;9.65;;;5.35;;
40997;SDS011;26740;45.944;12.480;2023-04-02T19:43:02;8.05;;;5.40;;
40997;SDS011;26740;45.944;12.480;2023-04-02T19:45:38;9.82;;;6.00;;
40997;SDS011;26740;45.944;12.480;2023-04-02T19:48:10;9.40;;;5.60;;
40997;SDS011;26740;45.944;12.480;2023-04-02T19:50:51;8.13;;;5.18;;
40997;SDS011;26740;45.944;12.480;2023-04-02T19:53:17;7.30;;;4.55;;
40997;SDS011;26740;45.944;12.480;2023-04-02T19:55:43;7.32;;;4.72;;
40997;SDS011;26740;45.944;12.480;2023-04-02T19:58:26;8.77;;;4.88;;
40997;SDS011;26740;45.944;12.480;2023-04-02T20:00:54;9.10;;;4.45;;
40997;SDS011;26740;45.944;12.480;2023-04-02T20:03:20;7.30;;;4.28;;
40997;SDS011;26740;45.944;12.480;2023-04-02T20:05:46;6.97;;;4.50;;
40997;SDS011;26740;45.944;12.480;2023-04-02T20:08:12;7.88;;;4.30;;
40997;SDS011;26740;45.944;12.480;2023-04-02T20:10:37;17.15;;;5.30;;
40997;SDS011;26740;45.944;12.480;2023-04-02T20:13:03;10.00;;;4.32;;
40997;SDS011;26740;45.944;12.480;2023-04-02T20:15:28;8.43;;;5.03;;
40997;SDS011;26740;45.944;12.480;2023-04-02T20:17:54;7.95;;;5.63;;
40997;SDS011;26740;45.944;12.480;2023-04-02T20:20:20;7.32;;;4.10;;
40997;SDS011;26740;45.944;12.480;2023-04-02T20:22:46;9.32;;;4.90;;
40997;SDS011;26740;45.944;12.480;2023-04-02T20:25:12;6.57;;;3.95;;
40997;SDS011;26740;45.944;12.480;2023-04-02T20:27:38;8.48;;;4.13;;
40997;SDS011;26740;45.944;12.480;2023-04-02T20:30:04;8.75;;;3.78;;
40997;SDS011;26740;45.944;12.480;2023-04-02T20:32:30;7.38;;;3.35;;
40997;SDS011;26740;45.944;12.480;2023-04-02T20:34:56;6.43;;;3.67;;
40997;SDS011;26740;45.944;12.480;2023-04-02T20:37:22;7.20;;;3.97;;
40997;SDS011;26740;45.944;12.480;2023-04-02T20:39:48;9.82;;;5.30;;
40997;SDS011;26740;45.944;12.480;2023-04-02T20:42:13;10.57;;;4.47;;
40997;SDS011;26740;45.944;12.480;2023-04-02T20:44:39;6.03;;;4.20;;
40997;SDS011;26740;45.944;12.480;2023-04-02T20:47:05;7.53;;;4.05;;
40997;SDS011;26740;45.944;12.480;2023-04-02T20:49:32;7.40;;;3.50;;